Time;durP1;ratioP1;P1;durP2;ratioP2;P2;SDS_P1;SDS_P2;PMS_P1;PMS_P2;Temp;Humidity;BMP_temperature;BMP_pressure;BME280_temperature;BME280_humidity;BME280_pressure;Samples;Min_cycle;Max_cycle;Signal;HPM_P1;HPM_P2
2021/08/23 00:01:39;;;;;;;0.00;0.00;;;17.90;99.90;;;;;;5004519;28;20080;-85
2021/08/23 00:04:26;;;;;;;0.00;0.00;;;17.80;99.90;;;;;;5003176;28;20057;-83
2021/08/23 00:07:13;;;;;;;0.00;0.00;;;17.80;99.90;;;;;;4999458;28;20524;-85
2021/08/23 00:10:02;;;;;;;0.00;0.00;;;17.90;99.90;;;;;;4989644;28;20188;-85
2021/08/23 00:12:49;;;;;;;0.00;0.00;;;17.90;99.90;;;;;;5002857;28;20524;-85
2021/08/23 00:15:38;;;;;;;0.00;0.00;;;18.30;99.90;;;;;;5000952;28;20656;-84
2021/08/23 00:18:25;;;;;;;0.00;0.00;;;17.70;99.90;;;;;;5001859;28;20082;-85
2021/08/23 00:21:14;;;;;;;0.00;0.00;;;;;;;;;;5002521;28;20176;-83
2021/08/23 00:24:17;;;;;;;0.00;0.00;;;17.40;99.90;;;;;;5004413;28;20120;-85
2021/08/23 00:27:05;;;;;;;0.00;0.00;;;17.30;99.90;;;;;;5002004;28;20088;-86
2021/08/23 00:29:53;;;;;;;0.00;0.00;;;17.30;99.90;;;;;;5004767;28;20045;-83
2021/08/23 00:32:41;;;;;;;0.00;0.00;;;17.20;99.90;;;;;;4988485;28;20120;-84
2021/08/23 00:35:28;;;;;;;0.00;0.00;;;19.60;99.90;;;;;;5004581;28;20505;-84
2021/08/23 00:38:15;;;;;;;0.00;0.00;;;16.80;99.90;;;;;;4987972;28;20046;-84
2021/08/23 00:41:02;;;;;;;0.00;0.00;;;16.70;99.90;;;;;;5002057;28;20318;-84
2021/08/23 00:43:51;;;;;;;0.00;0.00;;;16.60;99.90;;;;;;5001243;28;20042;-85
2021/08/23 00:46:38;;;;;;;0.00;0.00;;;16.70;99.90;;;;;;5002355;28;20068;-83
2021/08/23 00:49:26;;;;;;;0.00;0.00;;;16.70;99.90;;;;;;5004067;28;20046;-87
2021/08/23 00:52:13;;;;;;;0.00;0.00;;;16.50;99.90;;;;;;4999281;28;20719;-85
2021/08/23 00:55:02;;;;;;;0.00;0.00;;;16.60;99.90;;;;;;5002118;28;20049;-85
2021/08/23 00:57:53;;;;;;;0.00;0.00;;;16.60;99.90;;;;;;5002879;28;20508;-85
2021/08/23 01:00:50;;;;;;;0.00;0.00;;;16.70;99.90;;;;;;5002756;28;20071;-86
2021/08/23 01:03:46;;;;;;;0.00;0.00;;;16.60;99.90;;;;;;4997997;28;20086;-84
2021/08/23 01:06:33;;;;;;;0.00;0.00;;;16.60;99.90;;;;;;5002868;28;21916;-82
2021/08/23 01:09:25;;;;;;;0.00;0.00;;;16.70;99.90;;;;;;5003973;28;21352;-84
2021/08/23 01:12:14;;;;;;;0.00;0.00;;;16.70;99.90;;;;;;4999373;28;20074;-83
2021/08/23 01:15:01;;;;;;;0.00;0.00;;;16.70;99.90;;;;;;5001962;28;20038;-85
2021/08/23 01:17:51;;;;;;;0.00;0.00;;;16.70;99.90;;;;;;5002631;28;20513;-85
2021/08/23 01:20:44;;;;;;;0.00;0.00;;;16.60;99.90;;;;;;5002591;28;20050;-84
2021/08/23 01:23:34;;;;;;;0.00;0.00;;;16.60;99.90;;;;;;4980418;28;20045;-85
2021/08/23 01:26:25;;;;;;;0.00;0.00;;;16.50;99.90;;;;;;5001508;28;20306;-84
2021/08/23 01:29:19;;;;;;;0.00;0.00;;;16.60;99.90;;;;;;4999176;28;20129;-85
2021/08/23 01:32:13;;;;;;;0.00;0.00;;;16.50;99.90;;;;;;5002644;28;20049;-84
2021/08/23 01:35:02;;;;;;;0.00;0.00;;;16.30;99.90;;;;;;5002286;28;20557;-84
2021/08/23 01:37:50;;;;;;;0.00;0.00;;;16.20;99.90;;;;;;5000434;28;20140;-84
2021/08/23 01:40:38;;;;;;;0.00;0.00;;;16.20;99.90;;;;;;4988286;28;20120;-85
2021/08/23 01:43:25;;;;;;;0.00;0.00;;;;;;;;;;4987368;28;20095;-83
2021/08/23 01:46:12;;;;;;;0.00;0.00;;;16.20;99.90;;;;;;4986724;28;20060;-84
2021/08/23 01:49:02;;;;;;;0.00;0.00;;;16.20;99.90;;;;;;5003309;28;20061;-85
2021/08/23 01:51:49;;;;;;;0.00;0.00;;;16.20;99.90;;;;;;4985997;28;20069;-84
2021/08/23 01:54:37;;;;;;;0.00;0.00;;;16.10;99.90;;;;;;5002943;28;20529;-83
2021/08/23 01:57:25;;;;;;;0.00;0.00;;;16.10;99.90;;;;;;5000953;28;20185;-82
2021/08/23 02:00:14;;;;;;;0.00;0.00;;;16.20;99.90;;;;;;5001913;28;20042;-84
2021/08/23 02:03:01;;;;;;;0.00;0.00;;;16.10;99.90;;;;;;5001728;28;20046;-85
2021/08/23 02:05:50;;;;;;;0.00;0.00;;;16.00;99.90;;;;;;5001693;28;20096;-84
2021/08/23 02:08:37;;;;;;;0.00;0.00;;;16.10;99.90;;;;;;4986893;28;20107;-85
2021/08/23 02:11:24;;;;;;;0.00;0.00;;;16.10;99.90;;;;;;4988469;28;20111;-85
2021/08/23 02:14:11;;;;;;;0.00;0.00;;;16.10;99.90;;;;;;4987806;28;20038;-84
2021/08/23 02:16:58;;;;;;;0.10;0.10;;;16.10;99.90;;;;;;4991223;28;20368;-85
2021/08/23 02:19:45;;;;;;;0.00;0.00;;;16.10;99.90;;;;;;5003111;28;20494;-85
2021/08/23 02:22:34;;;;;;;0.00;0.00;;;16.10;99.90;;;;;;5006869;28;20101;-84
2021/08/23 02:25:22;;;;;;;0.00;0.00;;;16.10;99.90;;;;;;4989148;28;20121;-84
2021/08/23 02:28:09;;;;;;;0.00;0.00;;;16.20;99.90;;;;;;4993018;28;20057;-83
2021/08/23 02:30:56;;;;;;;0.00;0.00;;;16.20;99.90;;;;;;5004673;28;20061;-85
2021/08/23 02:33:43;;;;;;;0.00;0.00;;;16.30;99.90;;;;;;4988433;28;20529;-84
2021/08/23 02:36:31;;;;;;;0.00;0.00;;;17.50;99.90;;;;;;4989821;28;20080;-85
2021/08/23 02:39:19;;;;;;;0.00;0.00;;;16.30;99.90;;;;;;4988444;28;20529;-86
2021/08/23 02:42:06;;;;;;;0.00;0.00;;;16.20;99.90;;;;;;5005170;28;20077;-84
2021/08/23 02:44:54;;;;;;;0.00;0.00;;;16.10;99.90;;;;;;5002529;28;20081;-85
2021/08/23 02:47:41;;;;;;;0.00;0.00;;;16.10;99.90;;;;;;5007211;28;20448;-84
2021/08/23 02:50:28;;;;;;;0.00;0.00;;;16.00;99.90;;;;;;4990556;28;20111;-84
2021/08/23 02:53:15;;;;;;;0.05;0.05;;;16.00;99.90;;;;;;5003991;28;20557;-84
2021/08/23 02:56:04;;;;;;;0.00;0.00;;;15.10;99.90;;;;;;4992816;28;20453;-83
2021/08/23 02:58:51;;;;;;;0.00;0.00;;;15.90;99.90;;;;;;5003528;28;20054;-81
2021/08/23 03:01:38;;;;;;;0.00;0.00;;;16.00;99.90;;;;;;4991607;28;20081;-84
2021/08/23 03:04:25;;;;;;;0.00;0.00;;;16.00;99.90;;;;;;5002314;28;20049;-85
2021/08/23 03:07:12;;;;;;;0.00;0.00;;;16.50;99.90;;;;;;5005446;28;20064;-84
2021/08/23 03:10:04;;;;;;;0.00;0.00;;;16.00;99.90;;;;;;4990676;28;20485;-85
2021/08/23 03:12:53;;;;;;;0.00;0.00;;;15.90;99.90;;;;;;5006290;28;20080;-82
2021/08/23 03:15:40;;;;;;;0.00;0.00;;;16.70;99.90;;;;;;5005231;28;21459;-85
2021/08/23 03:18:27;;;;;;;0.00;0.00;;;15.90;99.90;;;;;;5006223;28;20616;-85
2021/08/23 03:21:14;;;;;;;0.00;0.00;;;15.80;99.90;;;;;;4992487;28;20140;-85
2021/08/23 03:24:02;;;;;;;0.00;0.00;;;15.90;99.90;;;;;;5004985;28;20046;-83
2021/08/23 03:26:49;;;;;;;0.00;0.00;;;15.90;99.90;;;;;;4991304;28;20116;-82
2021/08/23 03:29:37;;;;;;;0.00;0.00;;;15.80;99.90;;;;;;5007032;28;20046;-85
2021/08/23 03:32:24;;;;;;;0.00;0.00;;;16.00;99.90;;;;;;5008042;28;20046;-87
2021/08/23 03:35:11;;;;;;;0.00;0.00;;;15.90;99.90;;;;;;5003637;28;20097;-85
2021/08/23 03:38:01;;;;;;;0.00;0.00;;;15.70;99.90;;;;;;4991304;28;20050;-86
2021/08/23 03:40:49;;;;;;;0.00;0.00;;;;;;;;;;4990182;28;20199;-84
2021/08/23 03:43:36;;;;;;;0.00;0.00;;;15.80;99.90;;;;;;5003180;28;20100;-83
2021/08/23 03:46:24;;;;;;;0.00;0.00;;;15.60;99.90;;;;;;5003292;28;20058;-85
2021/08/23 03:49:11;;;;;;;0.00;0.00;;;15.60;99.90;;;;;;4991284;28;20072;-83
2021/08/23 03:51:59;;;;;;;0.00;0.00;;;15.60;99.90;;;;;;5004497;28;20136;-84
2021/08/23 03:54:46;;;;;;;0.00;0.00;;;15.70;99.90;;;;;;5002232;28;20095;-84
2021/08/23 03:57:35;;;;;;;0.00;0.00;;;15.70;99.90;;;;;;4984343;28;20125;-85
2021/08/23 04:00:22;;;;;;;0.00;0.00;;;15.80;99.90;;;;;;5000806;28;20295;-84
2021/08/23 04:03:10;;;;;;;0.00;0.00;;;15.70;99.90;;;;;;5004071;28;20174;-84
2021/08/23 04:05:57;;;;;;;0.00;0.00;;;15.70;99.90;;;;;;4999012;28;20084;-83
2021/08/23 04:08:45;;;;;;;0.00;0.00;;;15.70;99.90;;;;;;4987998;28;20184;-83
2021/08/23 04:11:32;;;;;;;0.00;0.00;;;15.70;99.90;;;;;;5005866;28;20136;-84
2021/08/23 04:14:19;;;;;;;0.00;0.00;;;15.70;99.90;;;;;;4989701;28;20042;-83
2021/08/23 04:19:47;;;;;;;;;;;15.70;99.90;;;;;;5071194;28;20036;-82
2021/08/23 04:22:34;;;;;;;0.00;0.00;;;15.70;99.90;;;;;;5086213;28;19927;-81
2021/08/23 04:25:21;;;;;;;0.00;0.00;;;15.70;99.90;;;;;;5081961;28;20225;-85
2021/08/23 04:28:08;;;;;;;0.00;0.00;;;15.70;99.90;;;;;;5051468;28;20079;-85
2021/08/23 04:30:55;;;;;;;0.00;0.00;;;15.80;99.90;;;;;;5050765;28;20048;-83
2021/08/23 04:33:45;;;;;;;0.00;0.00;;;15.70;99.90;;;;;;5041300;28;20041;-84
2021/08/23 04:36:34;;;;;;;0.00;0.00;;;15.70;99.90;;;;;;5048613;28;20123;-82
2021/08/23 04:39:21;;;;;;;0.00;0.00;;;15.80;99.90;;;;;;5060425;28;20127;-84
2021/08/23 04:42:08;;;;;;;0.00;0.00;;;15.60;99.90;;;;;;5058572;28;20109;-84
2021/08/23 04:44:55;;;;;;;0.00;0.00;;;15.60;99.90;;;;;;5056365;28;20365;-86
2021/08/23 04:47:42;;;;;;;0.00;0.00;;;15.60;99.90;;;;;;5054349;28;20051;-84
2021/08/23 04:50:29;;;;;;;0.00;0.00;;;15.70;99.90;;;;;;5056706;28;20067;-83
2021/08/23 04:53:18;;;;;;;0.00;0.00;;;15.60;99.90;;;;;;5055692;28;20041;-85
2021/08/23 04:56:09;;;;;;;0.00;0.00;;;15.60;99.90;;;;;;5050219;28;20126;-84
2021/08/23 04:58:56;;;;;;;0.00;0.00;;;15.40;99.90;;;;;;5060026;28;20059;-79
2021/08/23 05:01:43;;;;;;;0.00;0.00;;;15.40;99.90;;;;;;5065105;28;20127;-84
2021/08/23 05:04:30;;;;;;;0.00;0.00;;;15.50;99.90;;;;;;5070179;28;20075;-83
2021/08/23 05:07:17;;;;;;;0.00;0.00;;;15.60;99.90;;;;;;5055828;28;20124;-85
2021/08/23 05:10:07;;;;;;;0.00;0.00;;;15.60;99.90;;;;;;5058251;28;20132;-84
2021/08/23 05:12:55;;;;;;;0.00;0.00;;;15.70;99.90;;;;;;5063325;28;20184;-82
2021/08/23 05:15:42;;;;;;;0.00;0.00;;;15.60;99.90;;;;;;5064866;28;20108;-84
2021/08/23 05:18:30;;;;;;;0.00;0.00;;;15.70;99.90;;;;;;5054273;28;20044;-82
2021/08/23 05:21:17;;;;;;;0.00;0.00;;;15.60;99.90;;;;;;5041203;28;20099;-83
2021/08/23 05:24:04;;;;;;;0.00;0.00;;;15.50;99.90;;;;;;5051190;28;20052;-84
2021/08/23 05:26:53;;;;;;;0.00;0.00;;;15.50;99.90;;;;;;5048182;28;20033;-83
2021/08/23 05:29:40;;;;;;;0.00;0.00;;;15.50;99.90;;;;;;5048756;28;20071;-84
2021/08/23 05:32:27;;;;;;;0.00;0.00;;;15.50;99.90;;;;;;5047253;28;20120;-84
2021/08/23 05:35:14;;;;;;;0.00;0.00;;;15.70;99.90;;;;;;5068967;28;20123;-83
2021/08/23 05:38:01;;;;;;;0.00;0.00;;;15.50;99.90;;;;;;5054553;28;20075;-85
2021/08/23 05:40:51;;;;;;;0.00;0.00;;;15.60;99.90;;;;;;5051793;28;20510;-84
2021/08/23 05:43:39;;;;;;;0.00;0.00;;;15.60;99.90;;;;;;5056671;28;20048;-82
2021/08/23 05:46:26;;;;;;;0.00;0.00;;;15.60;99.90;;;;;;5047669;28;20116;-84
2021/08/23 05:49:14;;;;;;;0.00;0.00;;;15.60;99.90;;;;;;5061049;28;20045;-83
2021/08/23 05:52:01;;;;;;;0.00;0.00;;;15.50;99.90;;;;;;5052265;28;20107;-84
2021/08/23 05:54:49;;;;;;;0.00;0.00;;;15.60;99.90;;;;;;5067907;28;20100;-82
2021/08/23 05:57:36;;;;;;;0.00;0.00;;;15.70;99.90;;;;;;5062475;28;20045;-85
2021/08/23 06:00:25;;;;;;;0.00;0.00;;;15.60;99.90;;;;;;5064977;28;20036;-83
2021/08/23 06:03:12;;;;;;;0.00;0.00;;;15.60;99.90;;;;;;5064678;28;20657;-82
2021/08/23 06:06:03;;;;;;;0.00;0.00;;;15.70;99.90;;;;;;5066575;28;20045;-83
2021/08/23 06:08:50;;;;;;;0.00;0.00;;;15.60;99.90;;;;;;5061365;28;20108;-85
2021/08/23 06:11:37;;;;;;;0.00;0.00;;;15.50;99.90;;;;;;5054243;28;20047;-82
2021/08/23 06:14:24;;;;;;;0.00;0.00;;;15.40;99.90;;;;;;5064055;28;20109;-84
2021/08/23 06:17:13;;;;;;;0.00;0.00;;;15.50;99.90;;;;;;5050939;28;20036;-84
2021/08/23 06:20:00;;;;;;;0.00;0.00;;;15.50;99.90;;;;;;5063576;28;20123;-82
2021/08/23 06:22:49;;;;;;;0.00;0.00;;;15.60;99.90;;;;;;5063597;28;20053;-83
2021/08/23 06:25:37;;;;;;;0.00;0.00;;;15.70;99.90;;;;;;5057484;28;20041;-83
2021/08/23 06:28:24;;;;;;;0.00;0.00;;;15.90;99.90;;;;;;5048346;28;20152;-85
2021/08/23 06:31:11;;;;;;;0.00;0.00;;;15.80;99.90;;;;;;5055297;28;20218;-83
2021/08/23 06:34:00;;;;;;;0.00;0.00;;;15.80;99.90;;;;;;5064395;28;20060;-83
2021/08/23 06:36:47;;;;;;;0.00;0.00;;;15.70;99.90;;;;;;5059169;28;20059;-84
2021/08/23 06:39:34;;;;;;;0.00;0.00;;;17.20;99.90;;;;;;5061353;28;20124;-84
2021/08/23 06:42:21;;;;;;;0.00;0.00;;;15.70;99.90;;;;;;5055879;28;20076;-83
2021/08/23 06:45:09;;;;;;;0.00;0.00;;;15.80;99.90;;;;;;5065859;28;20108;-82
2021/08/23 06:47:56;;;;;;;0.00;0.00;;;15.70;99.90;;;;;;5066294;28;20222;-84
2021/08/23 06:50:45;;;;;;;0.00;0.00;;;15.70;99.90;;;;;;5059555;28;20087;-85
2021/08/23 06:53:32;;;;;;;0.00;0.00;;;15.80;99.90;;;;;;5062912;28;20053;-81
2021/08/23 06:56:20;;;;;;;0.00;0.00;;;15.80;99.90;;;;;;5046674;28;20044;-84
2021/08/23 06:59:08;;;;;;;0.00;0.00;;;15.90;99.90;;;;;;5057985;28;20127;-85
2021/08/23 07:01:55;;;;;;;0.00;0.00;;;15.90;99.90;;;;;;5044383;28;20128;-84
2021/08/23 07:04:46;;;;;;;0.00;0.00;;;16.00;99.90;;;;;;5060244;28;20037;-82
2021/08/23 07:07:34;;;;;;;0.00;0.00;;;15.90;99.90;;;;;;5063798;28;20531;-83
2021/08/23 07:10:22;;;;;;;0.00;0.00;;;16.00;99.90;;;;;;5061487;28;20365;-85
2021/08/23 07:13:09;;;;;;;0.00;0.00;;;16.10;99.90;;;;;;5064415;28;20136;-84
2021/08/23 07:15:56;;;;;;;0.00;0.00;;;16.20;99.90;;;;;;5068356;28;20575;-85
2021/08/23 07:18:43;;;;;;;0.00;0.00;;;16.30;99.90;;;;;;5049873;28;20102;-83
2021/08/23 07:21:30;;;;;;;0.00;0.00;;;16.30;99.90;;;;;;5051585;28;20044;-85
2021/08/23 07:24:19;;;;;;;0.00;0.00;;;16.40;99.90;;;;;;5045471;28;20048;-83
2021/08/23 07:27:06;;;;;;;0.00;0.00;;;16.40;99.90;;;;;;5047172;28;20125;-82
2021/08/23 07:29:53;;;;;;;0.00;0.00;;;16.40;99.90;;;;;;5038782;28;20380;-85
2021/08/23 07:32:41;;;;;;;0.00;0.00;;;16.40;99.90;;;;;;5054071;28;20045;-83
2021/08/23 07:35:28;;;;;;;0.00;0.00;;;16.50;99.90;;;;;;5053895;28;20139;-83
2021/08/23 07:38:16;;;;;;;0.00;0.00;;;16.60;99.90;;;;;;5055697;28;20518;-84
2021/08/23 07:41:04;;;;;;;0.00;0.00;;;16.60;99.90;;;;;;5051114;28;20060;-81
2021/08/23 07:43:51;;;;;;;0.00;0.00;;;16.60;99.90;;;;;;5046959;28;20527;-84
2021/08/23 07:46:38;;;;;;;0.00;0.00;;;16.60;99.90;;;;;;5054606;28;20039;-85
2021/08/23 07:49:26;;;;;;;0.00;0.00;;;16.70;99.90;;;;;;5051805;28;20568;-84
2021/08/23 07:52:13;;;;;;;0.00;0.00;;;16.60;99.90;;;;;;5057233;28;20047;-85
2021/08/23 07:55:00;;;;;;;0.00;0.00;;;16.60;99.90;;;;;;5058712;28;20523;-84
2021/08/23 07:57:49;;;;;;;0.00;0.00;;;16.60;99.90;;;;;;5042786;28;20049;-82
2021/08/23 08:00:37;;;;;;;0.00;0.00;;;16.70;99.90;;;;;;5057212;28;20138;-84
2021/08/23 08:03:25;;;;;;;0.00;0.00;;;16.90;99.90;;;;;;5042401;28;20420;-85
2021/08/23 08:06:12;;;;;;;0.00;0.00;;;17.00;99.90;;;;;;5048321;28;20041;-84
2021/08/23 08:08:59;;;;;;;0.00;0.00;;;17.00;99.90;;;;;;5052253;28;20548;-84
2021/08/23 08:11:47;;;;;;;0.00;0.00;;;16.90;99.90;;;;;;5065785;28;20250;-81
2021/08/23 08:14:35;;;;;;;0.00;0.00;;;16.90;99.90;;;;;;5068858;28;20055;-85
2021/08/23 08:17:22;;;;;;;0.00;0.00;;;16.80;99.90;;;;;;5052816;28;20527;-85
2021/08/23 08:20:11;;;;;;;0.00;0.00;;;18.00;99.90;;;;;;5037961;28;20443;-83
2021/08/23 08:22:58;;;;;;;0.00;0.00;;;17.10;99.90;;;;;;5039281;28;20055;-86
2021/08/23 08:25:45;;;;;;;0.00;0.00;;;17.10;99.90;;;;;;5055365;28;20090;-82
2021/08/23 08:28:33;;;;;;;0.00;0.00;;;17.50;99.90;;;;;;5052533;28;20080;-85
2021/08/23 08:31:22;;;;;;;0.03;0.03;;;17.10;99.90;;;;;;5054739;28;20049;-84
2021/08/23 08:34:09;;;;;;;0.00;0.00;;;17.20;99.90;;;;;;5050891;28;20068;-84
2021/08/23 08:36:56;;;;;;;0.00;0.00;;;17.20;99.90;;;;;;5049832;28;20127;-84
2021/08/23 08:39:43;;;;;;;0.00;0.00;;;17.20;99.90;;;;;;5042218;28;20167;-85
2021/08/23 08:42:30;;;;;;;0.00;0.00;;;17.20;99.90;;;;;;5044888;28;20041;-85
2021/08/23 08:45:18;;;;;;;0.00;0.00;;;17.20;99.90;;;;;;5052406;28;20124;-84
2021/08/23 08:48:08;;;;;;;0.00;0.00;;;17.20;99.90;;;;;;5042988;28;20128;-84
2021/08/23 08:50:55;;;;;;;0.00;0.00;;;17.30;99.90;;;;;;5048115;28;20452;-85
2021/08/23 08:53:43;;;;;;;0.00;0.00;;;17.40;99.90;;;;;;5033975;28;20037;-83
2021/08/23 08:56:31;;;;;;;0.00;0.00;;;17.70;99.90;;;;;;5075912;28;20047;-86
2021/08/23 08:59:18;;;;;;;0.00;0.00;;;17.30;99.90;;;;;;5025794;28;20075;-83
2021/08/23 09:02:05;;;;;;;0.00;0.00;;;17.50;99.90;;;;;;5047294;28;20313;-85
2021/08/23 09:04:54;;;;;;;0.00;0.00;;;17.50;99.90;;;;;;5053223;28;20043;-82
2021/08/23 09:07:46;;;;;;;0.00;0.00;;;17.30;99.90;;;;;;5054228;28;20491;-83
2021/08/23 09:10:36;;;;;;;0.00;0.00;;;17.30;99.90;;;;;;5048433;28;20041;-85
2021/08/23 09:13:24;;;;;;;0.00;0.00;;;17.40;99.90;;;;;;5044909;28;20133;-84
2021/08/23 09:16:11;;;;;;;0.00;0.00;;;17.50;99.90;;;;;;5062794;28;20092;-85
2021/08/23 09:18:59;;;;;;;0.00;0.00;;;17.40;99.90;;;;;;5058736;28;20122;-83
2021/08/23 09:21:56;;;;;;;0.00;0.00;;;17.40;99.90;;;;;;5059185;28;20137;-85
2021/08/23 09:24:43;;;;;;;0.00;0.00;;;17.10;99.90;;;;;;5042134;28;20052;-85
2021/08/23 09:27:32;;;;;;;0.00;0.00;;;17.10;99.90;;;;;;5045888;28;20058;-83
2021/08/23 09:30:21;;;;;;;0.00;0.00;;;17.20;99.90;;;;;;5052323;28;20045;-82
2021/08/23 09:33:08;;;;;;;0.00;0.00;;;17.30;99.90;;;;;;5055398;28;20127;-85
2021/08/23 09:35:55;;;;;;;0.00;0.00;;;17.20;99.90;;;;;;5056034;28;20155;-81
2021/08/23 09:38:54;;;;;;;0.00;0.00;;;16.90;99.90;;;;;;5047877;28;20117;-83
2021/08/23 09:41:42;;;;;;;0.00;0.00;;;16.80;99.90;;;;;;5057458;28;20623;-81
2021/08/23 09:44:35;;;;;;;0.00;0.00;;;16.80;99.90;;;;;;5043699;28;20474;-84
2021/08/23 09:47:29;;;;;;;0.00;0.00;;;17.00;99.90;;;;;;5045611;28;20065;-84
2021/08/23 09:50:17;;;;;;;0.00;0.00;;;17.10;99.90;;;;;;5042425;28;20045;-83
2021/08/23 09:53:06;;;;;;;0.00;0.00;;;17.20;99.90;;;;;;5054622;28;20041;-82
2021/08/23 09:55:57;;;;;;;0.00;0.00;;;17.40;99.90;;;;;;5032962;28;20045;-85
2021/08/23 09:58:44;;;;;;;0.00;0.00;;;17.80;99.90;;;;;;5064891;28;20123;-82
2021/08/23 10:01:33;;;;;;;0.00;0.00;;;17.60;99.90;;;;;;5060410;28;20048;-85
2021/08/23 10:04:21;;;;;;;0.00;0.00;;;17.60;99.90;;;;;;5045650;28;20571;-85
2021/08/23 10:07:10;;;;;;;0.00;0.00;;;17.60;99.90;;;;;;5032076;28;20123;-85
2021/08/23 10:10:01;;;;;;;0.00;0.00;;;17.60;99.90;;;;;;5031318;28;20049;-85
2021/08/23 10:12:50;;;;;;;0.00;0.00;;;17.50;99.90;;;;;;5041171;28;20076;-83
2021/08/23 10:15:38;;;;;;;0.00;0.00;;;17.50;99.90;;;;;;5032856;28;20056;-85
2021/08/23 10:18:26;;;;;;;0.00;0.00;;;17.50;99.90;;;;;;5060998;28;20041;-77
2021/08/23 10:21:14;;;;;;;0.00;0.00;;;17.50;99.90;;;;;;5034214;28;20144;-85
2021/08/23 10:24:02;;;;;;;0.00;0.00;;;17.80;99.90;;;;;;5035732;28;20535;-84
2021/08/23 10:26:50;;;;;;;0.00;0.00;;;18.10;99.90;;;;;;5044260;28;20051;-85
2021/08/23 10:29:40;;;;;;;0.00;0.00;;;18.20;99.90;;;;;;5059165;28;20054;-85
2021/08/23 10:32:34;;;;;;;0.00;0.00;;;18.40;99.90;;;;;;5031335;28;20588;-85
2021/08/23 10:35:24;;;;;;;0.00;0.00;;;18.40;99.90;;;;;;5051389;28;20052;-85
2021/08/23 10:38:16;;;;;;;0.00;0.00;;;18.30;99.90;;;;;;5047416;28;20048;-83
2021/08/23 10:41:08;;;;;;;0.00;0.00;;;18.10;99.90;;;;;;5049260;28;20047;-83
2021/08/23 10:43:58;;;;;;;0.00;0.00;;;18.20;99.90;;;;;;5053284;28;20112;-83
2021/08/23 10:46:47;;;;;;;0.00;0.00;;;18.30;99.90;;;;;;5053482;28;20037;-83
2021/08/23 10:49:40;;;;;;;0.00;0.00;;;18.30;99.90;;;;;;5052830;28;20057;-84
2021/08/23 10:52:33;;;;;;;0.00;0.00;;;18.40;99.90;;;;;;5048095;28;20095;-82
2021/08/23 10:55:23;;;;;;;0.00;0.00;;;18.30;99.90;;;;;;5053520;28;20048;-84
2021/08/23 10:58:10;;;;;;;0.00;0.00;;;18.30;99.90;;;;;;5054041;28;20044;-83
2021/08/23 11:00:57;;;;;;;0.00;0.00;;;18.40;99.90;;;;;;5051219;28;20043;-83
2021/08/23 11:03:57;;;;;;;0.00;0.00;;;18.40;99.90;;;;;;5055174;28;20134;-85
2021/08/23 11:06:48;;;;;;;0.00;0.00;;;18.40;99.90;;;;;;5044515;28;20041;-82
2021/08/23 11:09:38;;;;;;;0.00;0.00;;;18.60;99.90;;;;;;5036028;28;20052;-84
2021/08/23 11:12:26;;;;;;;0.00;0.00;;;18.50;99.90;;;;;;5046823;28;20049;-85
2021/08/23 11:15:16;;;;;;;0.00;0.00;;;18.60;99.90;;;;;;5050919;28;20051;-81
2021/08/23 11:18:07;;;;;;;0.00;0.00;;;18.60;99.90;;;;;;5025478;28;20048;-83
2021/08/23 11:20:56;;;;;;;0.00;0.00;;;18.80;99.90;;;;;;5041873;28;20397;-85
2021/08/23 11:23:46;;;;;;;0.00;0.00;;;19.00;99.90;;;;;;5052242;28;20420;-81
2021/08/23 11:26:33;;;;;;;0.00;0.00;;;19.20;99.90;;;;;;5052230;28;20398;-82
2021/08/23 11:29:20;;;;;;;0.00;0.00;;;19.20;99.90;;;;;;5039093;28;20076;-83
2021/08/23 11:32:09;;;;;;;0.00;0.00;;;19.10;99.90;;;;;;5050348;28;20202;-82
2021/08/23 11:34:58;;;;;;;0.00;0.00;;;19.20;99.90;;;;;;5046400;28;20605;-82
2021/08/23 11:37:53;;;;;;;0.00;0.00;;;19.10;99.90;;;;;;5043629;28;20073;-83
2021/08/23 11:40:44;;;;;;;0.00;0.00;;;19.10;99.90;;;;;;5048743;28;20118;-85
2021/08/23 11:43:33;;;;;;;0.00;0.00;;;19.10;99.90;;;;;;5028865;28;20159;-83
2021/08/23 11:46:20;;;;;;;0.00;0.00;;;19.30;99.90;;;;;;5050285;28;20512;-85
2021/08/23 11:49:07;;;;;;;0.00;0.00;;;19.40;99.90;;;;;;5066762;28;20040;-83
2021/08/23 11:51:57;;;;;;;;;;;19.40;99.90;;;;;;5053673;28;20048;-80
2021/08/23 11:54:48;;;;;;;0.00;0.00;;;19.50;99.90;;;;;;5045844;28;19928;-86
2021/08/23 11:57:36;;;;;;;0.00;0.00;;;19.60;99.90;;;;;;5036504;28;20045;-85
2021/08/23 12:00:23;;;;;;;0.00;0.00;;;19.80;99.90;;;;;;5042614;28;20044;-85
2021/08/23 12:03:12;;;;;;;0.00;0.00;;;20.00;99.90;;;;;;5044735;28;20154;-82
2021/08/23 12:06:05;;;;;;;0.00;0.00;;;20.20;99.90;;;;;;5026548;28;20128;-80
2021/08/23 12:09:00;;;;;;;0.00;0.00;;;20.20;99.90;;;;;;5038201;28;20044;-81
2021/08/23 12:11:48;;;;;;;0.00;0.00;;;20.20;99.90;;;;;;5041057;28;20048;-85
2021/08/23 12:14:35;;;;;;;0.00;0.00;;;20.30;99.90;;;;;;5024111;28;20568;-83
2021/08/23 12:17:29;;;;;;;0.00;0.00;;;20.30;99.90;;;;;;5041460;28;20044;-82
2021/08/23 12:20:19;;;;;;;0.00;0.00;;;20.60;99.90;;;;;;5056686;28;20112;-83
2021/08/23 12:23:06;;;;;;;0.00;0.00;;;20.00;99.90;;;;;;5021712;28;20041;-85
2021/08/23 12:26:04;;;;;;;0.00;0.00;;;20.10;99.90;;;;;;5037210;28;20059;-84
2021/08/23 12:28:54;;;;;;;0.00;0.00;;;20.30;99.90;;;;;;5038540;28;20098;-82
2021/08/23 12:31:47;;;;;;;0.00;0.00;;;20.40;99.90;;;;;;5040312;28;20045;-85
2021/08/23 12:34:40;;;;;;;0.00;0.00;;;20.60;99.90;;;;;;5046602;28;20211;-84
2021/08/23 12:37:30;;;;;;;0.00;0.00;;;20.60;99.90;;;;;;5041048;28;20575;-84
2021/08/23 12:40:17;;;;;;;;;;;20.80;99.90;;;;;;5041275;28;20156;-83
2021/08/23 12:43:04;;;;;;;0.00;0.00;;;21.10;99.90;;;;;;5045178;28;20024;-82
2021/08/23 12:45:52;;;;;;;0.00;0.00;;;21.10;99.90;;;;;;5040931;28;20456;-79
2021/08/23 12:48:39;;;;;;;0.00;0.00;;;21.20;99.90;;;;;;5046059;28;20044;-84
2021/08/23 12:51:27;;;;;;;0.00;0.00;;;21.40;99.90;;;;;;5055855;28;20151;-84
2021/08/23 12:54:15;;;;;;;0.00;0.00;;;21.40;99.90;;;;;;5046871;28;20643;-83
2021/08/23 12:57:02;;;;;;;0.00;0.00;;;21.10;99.90;;;;;;5034529;28;20580;-84
2021/08/23 12:59:50;;;;;;;0.00;0.00;;;20.90;99.90;;;;;;5025074;28;21581;-84
2021/08/23 13:02:39;;;;;;;0.00;0.00;;;20.90;99.90;;;;;;5049383;28;20156;-82
2021/08/23 13:05:26;;;;;;;;;;;21.20;99.90;;;;;;5039634;28;20124;-84
2021/08/23 13:08:13;;;;;;;0.00;0.00;;;21.50;99.90;;;;;;5051531;28;20063;-81
2021/08/23 13:11:01;;;;;;;0.00;0.00;;;21.70;99.90;;;;;;5041810;28;20569;-84
2021/08/23 13:13:49;;;;;;;0.00;0.00;;;21.70;99.90;;;;;;5060748;28;20119;-82
2021/08/23 13:16:36;;;;;;;0.00;0.00;;;21.70;99.80;;;;;;5039123;28;20556;-84
2021/08/23 13:19:25;;;;;;;0.00;0.00;;;21.60;99.90;;;;;;5041869;28;20039;-82
2021/08/23 13:22:12;;;;;;;0.00;0.00;;;21.60;99.90;;;;;;5042267;28;20053;-80
2021/08/23 13:24:59;;;;;;;0.00;0.00;;;21.80;99.30;;;;;;5042041;28;20110;-83
2021/08/23 13:27:46;;;;;;;0.00;0.00;;;22.00;98.50;;;;;;5039186;28;20090;-81
2021/08/23 13:30:34;;;;;;;0.00;0.00;;;22.10;98.00;;;;;;5042781;28;20048;-85
2021/08/23 13:33:21;;;;;;;0.00;0.00;;;22.40;97.80;;;;;;5045060;28;20455;-79
2021/08/23 13:36:09;;;;;;;0.00;0.00;;;21.80;98.70;;;;;;5041731;28;20053;-85
2021/08/23 13:38:57;;;;;;;0.00;0.00;;;22.10;98.00;;;;;;5026533;28;20059;-80
2021/08/23 13:41:44;;;;;;;0.00;0.00;;;22.10;97.40;;;;;;5038483;28;20568;-84
2021/08/23 13:44:31;;;;;;;0.00;0.00;;;22.10;97.10;;;;;;5046385;28;20674;-83
2021/08/23 13:47:18;;;;;;;0.00;0.00;;;22.20;96.40;;;;;;5039119;28;20048;-84
2021/08/23 13:50:06;;;;;;;0.00;0.00;;;21.90;96.80;;;;;;5040204;28;20131;-81
2021/08/23 13:52:55;;;;;;;0.00;0.00;;;21.60;96.50;;;;;;5041041;28;20136;-82
2021/08/23 13:55:46;;;;;;;0.00;0.00;;;21.60;97.30;;;;;;5043370;28;20131;-81
2021/08/23 13:58:33;;;;;;;0.00;0.00;;;21.80;96.80;;;;;;5042382;28;20127;-84
2021/08/23 14:01:20;;;;;;;0.00;0.00;;;21.90;96.80;;;;;;5050437;28;20044;-82
2021/08/23 14:04:07;;;;;;;0.00;0.00;;;22.20;96.70;;;;;;5040476;28;20140;-84
2021/08/23 14:06:54;;;;;;;0.00;0.00;;;21.90;95.70;;;;;;5044478;28;20564;-82
2021/08/23 14:09:43;;;;;;;0.00;0.00;;;22.00;95.80;;;;;;5040593;28;20135;-83
2021/08/23 14:12:30;;;;;;;0.00;0.00;;;22.10;96.40;;;;;;5050663;28;20102;-80
2021/08/23 14:15:18;;;;;;;0.00;0.00;;;22.30;95.20;;;;;;5047274;28;20045;-82
2021/08/23 14:18:05;;;;;;;0.00;0.00;;;22.60;94.80;;;;;;5054217;28;20110;-83
2021/08/23 14:20:53;;;;;;;0.00;0.00;;;22.40;93.40;;;;;;5041111;28;20124;-83
2021/08/23 14:23:40;;;;;;;0.00;0.00;;;22.50;93.90;;;;;;5062153;28;20112;-85
2021/08/23 14:26:29;;;;;;;0.00;0.00;;;22.50;93.80;;;;;;5031593;28;20389;-81
2021/08/23 14:29:16;;;;;;;0.00;0.00;;;22.50;94.60;;;;;;5044299;28;20037;-83
2021/08/23 14:32:04;;;;;;;0.00;0.00;;;22.80;94.40;;;;;;5024825;28;20581;-84
2021/08/23 14:34:51;;;;;;;0.00;0.00;;;22.90;93.40;;;;;;5057310;28;22133;-82
2021/08/23 14:37:38;;;;;;;0.00;0.00;;;22.70;92.50;;;;;;5043716;28;20044;-85
2021/08/23 14:40:26;;;;;;;0.00;0.00;;;22.40;92.00;;;;;;5030368;28;20040;-82